createdAt,value
2022-11-29T00:01:01.746Z,32.92
2022-11-29T00:03:29.848Z,36.28
2022-11-29T00:05:57.197Z,32.03
2022-11-29T00:08:25.080Z,31.83
2022-11-29T00:10:52.476Z,35.45
2022-11-29T00:13:25.480Z,38.88
2022-11-29T00:15:52.672Z,34.55
2022-11-29T00:18:19.903Z,37.10
2022-11-29T00:20:47.089Z,35.47
2022-11-29T00:23:14.303Z,33.25
2022-11-29T00:25:41.530Z,36.65
2022-11-29T00:28:08.838Z,35.80
2022-11-29T00:30:36.078Z,36.42
2022-11-29T00:33:03.771Z,33.63
2022-11-29T00:35:30.992Z,35.20
2022-11-29T00:37:58.286Z,41.85
2022-11-29T00:40:25.498Z,35.65
2022-11-29T00:42:52.784Z,38.88
2022-11-29T00:45:20.067Z,38.45
2022-11-29T00:47:47.295Z,39.92
2022-11-29T00:50:14.502Z,37.90
2022-11-29T00:52:41.753Z,36.50
2022-11-29T00:55:09.224Z,38.72
2022-11-29T00:57:36.504Z,41.47
2022-11-29T01:00:04.602Z,35.50
2022-11-29T01:02:31.874Z,40.90
2022-11-29T01:04:59.204Z,36.50
2022-11-29T01:07:26.503Z,35.70
2022-11-29T01:09:53.718Z,35.70
2022-11-29T01:12:20.995Z,41.22
2022-11-29T01:14:48.277Z,33.25
2022-11-29T01:17:15.560Z,37.08
2022-11-29T01:19:50.462Z,37.13
2022-11-29T01:22:20.889Z,33.25
2022-11-29T01:24:48.135Z,33.55
2022-11-29T01:27:15.655Z,35.30
2022-11-29T01:29:42.915Z,38.38
2022-11-29T01:32:12.312Z,36.70
2022-11-29T01:34:40.209Z,40.00
2022-11-29T01:37:07.402Z,30.77
2022-11-29T01:39:38.014Z,37.25
2022-11-29T01:42:05.408Z,34.60
2022-11-29T01:44:32.630Z,33.42
2022-11-29T01:46:59.895Z,33.00
2022-11-29T01:49:35.730Z,31.83
2022-11-29T01:52:14.040Z,31.65
2022-11-29T01:54:43.738Z,31.00
2022-11-29T01:57:11.569Z,33.80
2022-11-29T01:59:42.489Z,31.83
2022-11-29T02:02:17.815Z,36.72
2022-11-29T02:04:48.270Z,35.13
2022-11-29T02:07:18.039Z,32.28
2022-11-29T02:09:45.371Z,30.77
2022-11-29T02:12:21.801Z,32.40
2022-11-29T02:14:56.478Z,36.70
2022-11-29T02:17:35.385Z,31.23
2022-11-29T02:20:10.718Z,29.98
2022-11-29T02:22:52.351Z,35.35
2022-11-29T02:25:25.667Z,31.38
2022-11-29T02:28:05.139Z,30.50
2022-11-29T02:30:41.352Z,34.92
2022-11-29T02:33:17.495Z,31.80
2022-11-29T02:35:59.803Z,34.22
2022-11-29T02:38:45.259Z,34.75
2022-11-29T02:41:15.278Z,36.05
2022-11-29T02:44:18.221Z,30.90
2022-11-29T02:47:04.137Z,35.40
2022-11-29T02:49:42.380Z,39.80
2022-11-29T02:52:14.179Z,28.67
2022-11-29T02:54:47.585Z,28.45
2022-11-29T02:57:14.970Z,27.80
2022-11-29T02:59:57.866Z,26.40
2022-11-29T03:02:34.501Z,29.92
2022-11-29T03:05:19.835Z,27.10
2022-11-29T03:07:56.952Z,28.17
2022-11-29T03:10:39.582Z,27.60
2022-11-29T03:13:11.087Z,30.60
2022-11-29T03:16:00.514Z,26.75
2022-11-29T03:18:35.339Z,27.23
2022-11-29T03:21:08.747Z,28.52
2022-11-29T03:23:35.915Z,32.97
2022-11-29T03:26:11.566Z,33.25
2022-11-29T03:28:58.615Z,29.70
2022-11-29T03:31:36.764Z,29.13
2022-11-29T03:34:15.262Z,29.85
2022-11-29T03:36:48.379Z,31.20
2022-11-29T03:39:19.445Z,28.85
2022-11-29T03:41:52.718Z,27.88
2022-11-29T03:44:23.324Z,27.42
2022-11-29T03:46:57.158Z,28.55
2022-11-29T03:49:27.797Z,32.38
2022-11-29T03:52:14.026Z,27.40
2022-11-29T03:54:47.394Z,34.58
2022-11-29T03:57:18.384Z,26.63
2022-11-29T04:00:06.142Z,27.80
2022-11-29T04:02:47.587Z,25.70
2022-11-29T04:05:22.505Z,25.23
2022-11-29T04:07:52.446Z,24.80
2022-11-29T04:10:19.701Z,23.30
2022-11-29T04:13:05.878Z,25.33
2022-11-29T04:15:56.448Z,23.80
2022-11-29T04:18:39.433Z,28.77
2022-11-29T04:21:25.710Z,25.70
2022-11-29T04:24:11.604Z,22.67
2022-11-29T04:26:56.977Z,23.42
2022-11-29T04:29:27.312Z,23.65
2022-11-29T04:32:04.025Z,25.15
2022-11-29T04:34:50.010Z,25.77
2022-11-29T04:37:29.437Z,28.13
2022-11-29T04:40:08.989Z,24.50
2022-11-29T04:42:52.020Z,26.45
2022-11-29T04:45:38.257Z,27.45
2022-11-29T04:48:16.033Z,23.77
2022-11-29T04:51:01.973Z,23.92
2022-11-29T04:53:52.605Z,24.83
2022-11-29T04:56:26.202Z,22.25
2022-11-29T04:58:53.464Z,27.80
2022-11-29T05:01:20.937Z,25.42
2022-11-29T05:03:57.083Z,23.60
2022-11-29T05:06:29.182Z,25.90
2022-11-29T05:09:15.933Z,22.02
2022-11-29T05:12:04.473Z,21.85
2022-11-29T05:14:50.038Z,24.65
2022-11-29T05:17:34.269Z,22.80
2022-11-29T05:20:20.136Z,21.88
2022-11-29T05:22:47.381Z,25.75
2022-11-29T05:25:24.110Z,24.88
2022-11-29T05:28:01.111Z,25.27
2022-11-29T05:30:49.579Z,22.92
2022-11-29T05:33:35.183Z,23.88
2022-11-29T05:36:15.993Z,25.90
2022-11-29T05:39:03.489Z,21.95
2022-11-29T05:41:30.696Z,25.17
2022-11-29T05:44:01.061Z,25.38
2022-11-29T05:46:47.017Z,22.27
2022-11-29T05:49:36.109Z,23.17
2022-11-29T05:52:22.262Z,23.92
2022-11-29T05:55:08.231Z,22.70
2022-11-29T05:57:35.401Z,25.80
2022-11-29T06:00:03.816Z,22.83
2022-11-29T06:02:58.089Z,23.20
2022-11-29T06:05:48.661Z,24.23
2022-11-29T06:08:16.682Z,26.98
2022-11-29T06:11:05.784Z,24.40
2022-11-29T06:13:49.824Z,23.63
2022-11-29T06:16:23.073Z,24.10
2022-11-29T06:18:50.393Z,25.48
2022-11-29T06:21:27.524Z,23.25
2022-11-29T06:23:54.817Z,24.83
2022-11-29T06:26:25.304Z,26.35
2022-11-29T06:29:11.495Z,25.63
2022-11-29T06:31:44.395Z,21.80
2022-11-29T06:34:16.654Z,21.73
2022-11-29T06:36:55.052Z,22.10
2022-11-29T06:39:22.537Z,22.55
2022-11-29T06:41:49.820Z,20.77
2022-11-29T06:44:17.267Z,20.90
2022-11-29T06:46:48.756Z,22.13
2022-11-29T06:49:28.082Z,22.95
2022-11-29T06:51:55.302Z,21.55
2022-11-29T06:54:31.858Z,20.08
2022-11-29T06:57:14.624Z,20.70
2022-11-29T06:59:41.886Z,18.85
2022-11-29T07:02:38.565Z,22.77
2022-11-29T07:05:24.393Z,22.98
2022-11-29T07:07:53.402Z,21.58
2022-11-29T07:10:20.970Z,24.77
2022-11-29T07:12:49.525Z,20.38
2022-11-29T07:15:18.481Z,22.83
2022-11-29T07:17:45.688Z,17.90
2022-11-29T07:20:31.768Z,22.00
2022-11-29T07:22:59.023Z,23.25
2022-11-29T07:25:38.301Z,17.40
2022-11-29T07:28:05.537Z,21.02
2022-11-29T07:30:40.905Z,16.27
2022-11-29T07:33:08.111Z,18.95
2022-11-29T07:35:35.359Z,16.58
2022-11-29T07:38:02.682Z,17.27
2022-11-29T07:40:37.531Z,18.45
2022-11-29T07:43:21.910Z,18.30
2022-11-29T07:45:49.385Z,17.40
2022-11-29T07:48:17.222Z,19.02
2022-11-29T07:50:44.925Z,18.35
2022-11-29T07:53:17.089Z,16.98
2022-11-29T07:55:44.421Z,16.27
2022-11-29T07:58:12.914Z,17.35
2022-11-29T08:00:41.931Z,20.80
2022-11-29T08:03:10.052Z,14.00
2022-11-29T08:05:38.320Z,18.02
2022-11-29T08:08:05.818Z,16.83
2022-11-29T08:10:35.532Z,17.23
2022-11-29T08:15:30.147Z,16.63
2022-11-29T08:17:57.396Z,15.98
2022-11-29T08:20:24.919Z,16.90
2022-11-29T08:22:59.237Z,16.38
2022-11-29T08:25:27.344Z,16.25
2022-11-29T08:27:55.025Z,18.23
2022-11-29T08:30:22.537Z,16.83
2022-11-29T08:32:53.519Z,13.75
2022-11-29T08:35:21.834Z,16.17
2022-11-29T08:37:49.087Z,15.40
2022-11-29T08:40:16.482Z,15.65
2022-11-29T08:42:43.805Z,17.30
2022-11-29T08:45:11.754Z,17.08
2022-11-29T08:47:40.135Z,17.98
2022-11-29T08:50:14.266Z,17.85
2022-11-29T08:53:07.169Z,17.15
2022-11-29T08:55:46.455Z,16.90
2022-11-29T08:58:15.177Z,16.38
2022-11-29T09:00:44.124Z,12.75
2022-11-29T09:03:30.031Z,15.23
2022-11-29T09:05:57.700Z,16.92
2022-11-29T09:08:24.932Z,17.65
2022-11-29T09:10:53.043Z,14.25
2022-11-29T09:13:20.367Z,15.30
2022-11-29T09:15:47.688Z,13.75
2022-11-29T09:18:14.966Z,13.95
2022-11-29T09:20:45.591Z,15.73
2022-11-29T09:23:13.490Z,20.17
2022-11-29T09:25:40.799Z,19.70
2022-11-29T09:28:08.739Z,16.70
2022-11-29T09:30:37.929Z,19.10
2022-11-29T09:33:05.729Z,12.77
2022-11-29T09:35:35.743Z,14.80
2022-11-29T09:38:03.047Z,13.38
2022-11-29T09:40:42.181Z,15.20
2022-11-29T09:43:28.644Z,11.90
2022-11-29T09:46:25.048Z,13.45
2022-11-29T09:49:02.713Z,14.38
2022-11-29T09:51:41.218Z,15.05
2022-11-29T09:54:25.191Z,13.00
2022-11-29T09:56:53.379Z,13.20
2022-11-29T09:59:23.355Z,12.80
2022-11-29T10:01:56.024Z,13.95
2022-11-29T10:04:26.423Z,13.63
2022-11-29T10:06:53.658Z,13.93
2022-11-29T10:09:32.238Z,15.02
2022-11-29T10:12:07.015Z,16.02
2022-11-29T10:14:43.208Z,19.42
2022-11-29T10:17:26.051Z,17.48
2022-11-29T10:19:56.754Z,17.02
2022-11-29T10:22:45.715Z,17.27
2022-11-29T10:25:17.727Z,15.07
2022-11-29T10:27:45.021Z,17.08
2022-11-29T10:30:16.044Z,18.17
2022-11-29T10:32:45.129Z,17.65
2022-11-29T10:35:14.515Z,16.17
2022-11-29T10:37:41.782Z,17.67
2022-11-29T10:40:19.939Z,20.10
2022-11-29T10:42:52.579Z,17.92
2022-11-29T10:45:31.287Z,16.27
2022-11-29T10:48:07.358Z,14.30
2022-11-29T10:50:36.254Z,16.77
2022-11-29T10:53:06.522Z,12.60
2022-11-29T10:55:37.807Z,15.77
2022-11-29T10:58:09.296Z,16.25
2022-11-29T11:00:51.774Z,14.98
2022-11-29T11:03:26.215Z,16.77
2022-11-29T11:05:58.477Z,17.00
2022-11-29T11:08:28.994Z,16.42
2022-11-29T11:11:02.082Z,16.67
2022-11-29T11:13:30.734Z,16.25
2022-11-29T11:16:18.483Z,17.35
2022-11-29T11:18:46.793Z,16.30
2022-11-29T11:21:15.536Z,18.20
2022-11-29T11:23:52.342Z,16.43
2022-11-29T11:26:20.279Z,16.90
2022-11-29T11:28:47.437Z,16.75
2022-11-29T11:31:15.096Z,19.35
2022-11-29T11:33:43.683Z,18.70
2022-11-29T11:36:10.974Z,20.08
2022-11-29T11:38:39.878Z,19.17
2022-11-29T11:41:16.896Z,20.20
2022-11-29T11:43:50.318Z,20.70
2022-11-29T11:46:18.297Z,19.40
2022-11-29T11:48:46.700Z,17.92
2022-11-29T11:51:21.927Z,20.00
2022-11-29T11:53:55.184Z,20.50
2022-11-29T11:56:23.643Z,22.77
2022-11-29T11:58:52.865Z,19.38
2022-11-29T12:01:33.532Z,20.20
2022-11-29T12:04:07.068Z,18.13
2022-11-29T12:06:44.517Z,19.15
2022-11-29T12:09:30.845Z,17.95
2022-11-29T12:12:20.366Z,18.95
2022-11-29T12:14:58.779Z,19.40
2022-11-29T12:17:35.087Z,18.73
2022-11-29T12:20:10.441Z,18.35
2022-11-29T12:23:01.170Z,18.88
2022-11-29T12:25:30.984Z,22.15
2022-11-29T12:27:58.386Z,19.80
2022-11-29T12:30:25.702Z,21.27
2022-11-29T12:33:13.664Z,19.20
2022-11-29T12:35:40.959Z,22.95
2022-11-29T12:38:14.145Z,18.85
2022-11-29T12:40:50.560Z,22.85
2022-11-29T12:43:17.763Z,19.77
2022-11-29T12:46:03.846Z,19.40
2022-11-29T12:48:55.867Z,20.63
2022-11-29T12:51:44.037Z,20.30
2022-11-29T12:54:16.473Z,19.98
2022-11-29T12:57:02.556Z,20.40
2022-11-29T13:00:04.834Z,18.77
2022-11-29T13:02:41.698Z,19.15
2022-11-29T13:05:12.075Z,18.75
2022-11-29T13:07:47.877Z,21.17
2022-11-29T13:10:29.643Z,19.75
2022-11-29T13:13:00.305Z,18.90
2022-11-29T13:15:42.671Z,19.45
2022-11-29T13:18:34.819Z,17.65
2022-11-29T13:21:05.283Z,18.98
2022-11-29T13:24:10.148Z,19.35
2022-11-29T13:26:39.400Z,18.23
2022-11-29T13:29:07.370Z,17.20
2022-11-29T13:31:34.986Z,17.45
2022-11-29T13:34:15.554Z,14.77
2022-11-29T13:36:45.981Z,15.20
2022-11-29T13:39:18.955Z,14.32
2022-11-29T13:41:49.483Z,14.25
2022-11-29T13:44:22.863Z,14.82
2022-11-29T13:46:50.118Z,14.50
2022-11-29T13:49:21.513Z,13.57
2022-11-29T13:51:52.456Z,14.55
2022-11-29T13:54:27.831Z,14.25
2022-11-29T13:57:06.040Z,12.48
2022-11-29T13:59:35.206Z,13.85
2022-11-29T14:02:02.824Z,14.68
2022-11-29T14:04:30.303Z,12.65
2022-11-29T14:07:08.719Z,14.75
2022-11-29T14:09:44.579Z,15.13
2022-11-29T14:12:21.791Z,14.98
2022-11-29T14:14:52.829Z,14.90
2022-11-29T14:17:34.495Z,15.55
2022-11-29T14:20:20.530Z,14.73
2022-11-29T14:23:14.245Z,15.05
2022-11-29T14:26:01.747Z,13.88
2022-11-29T14:28:39.175Z,15.23
2022-11-29T14:31:07.501Z,13.75
2022-11-29T14:33:34.821Z,14.98
2022-11-29T14:36:28.644Z,15.77
2022-11-29T14:38:55.944Z,13.45
2022-11-29T14:41:42.267Z,14.25
2022-11-29T14:44:15.659Z,14.90
2022-11-29T14:46:43.488Z,14.80
2022-11-29T14:49:20.909Z,14.05
2022-11-29T14:52:23.630Z,14.55
2022-11-29T14:54:54.696Z,15.02
2022-11-29T14:57:41.064Z,15.75
2022-11-29T15:00:14.344Z,15.00
2022-11-29T15:02:41.709Z,15.13
2022-11-29T15:05:18.692Z,15.57
2022-11-29T15:07:57.157Z,15.15
2022-11-29T15:10:29.677Z,15.60
2022-11-29T15:12:59.182Z,13.75
2022-11-29T15:15:53.148Z,15.75
2022-11-29T15:18:31.022Z,14.23
2022-11-29T15:20:58.278Z,14.73
2022-11-29T15:23:25.542Z,14.48
2022-11-29T15:25:54.189Z,18.15
2022-11-29T15:28:26.189Z,15.30
2022-11-29T15:31:04.108Z,15.40
2022-11-29T15:33:31.678Z,16.85
2022-11-29T15:36:06.371Z,18.85
2022-11-29T15:38:42.281Z,19.08
2022-11-29T15:41:19.985Z,17.17
2022-11-29T15:43:49.313Z,18.33
2022-11-29T15:46:20.301Z,15.82
2022-11-29T15:48:50.458Z,15.13
2022-11-29T15:51:21.938Z,14.90
2022-11-29T15:54:00.401Z,16.15
2022-11-29T15:59:13.443Z,15.35
2022-11-29T16:01:41.033Z,16.00
2022-11-29T16:04:13.357Z,14.63
2022-11-29T16:06:42.637Z,15.45
2022-11-29T16:09:20.548Z,16.23
2022-11-29T16:11:48.505Z,14.65
2022-11-29T16:14:18.247Z,15.60
2022-11-29T16:19:20.042Z,13.05
2022-11-29T16:21:59.083Z,12.88
2022-11-29T16:24:26.974Z,14.18
2022-11-29T16:26:55.017Z,13.50
2022-11-29T16:29:34.824Z,13.35
2022-11-29T16:32:12.942Z,14.27
2022-11-29T16:34:42.054Z,12.90
2022-11-29T16:37:19.476Z,10.75
2022-11-29T16:39:48.612Z,13.90
2022-11-29T16:42:25.806Z,15.52
2022-11-29T16:45:02.539Z,14.88
2022-11-29T16:47:31.260Z,13.25
2022-11-29T16:50:10.675Z,14.47
2022-11-29T16:52:37.927Z,19.15
2022-11-29T16:55:05.265Z,16.42
2022-11-29T16:57:32.750Z,19.35
2022-11-29T17:00:00.092Z,17.65
2022-11-29T17:02:30.065Z,13.65
2022-11-29T17:04:58.155Z,12.30
2022-11-29T17:07:30.135Z,11.77
2022-11-29T17:09:57.775Z,14.63
2022-11-29T17:12:25.051Z,16.63
2022-11-29T17:14:52.339Z,19.55
2022-11-29T17:17:22.347Z,18.08
2022-11-29T17:19:49.616Z,14.48
2022-11-29T17:22:16.900Z,14.80
2022-11-29T17:24:47.968Z,14.68
2022-11-29T17:27:16.030Z,11.88
2022-11-29T17:29:43.242Z,10.98
2022-11-29T17:32:10.638Z,11.95
2022-11-29T17:34:37.964Z,11.43
2022-11-29T17:37:05.356Z,11.60
2022-11-29T17:39:34.339Z,12.35
2022-11-29T17:42:03.845Z,11.43
2022-11-29T17:44:36.521Z,12.20
2022-11-29T17:47:07.023Z,13.38
2022-11-29T17:49:37.056Z,13.20
2022-11-29T17:52:04.595Z,15.43
2022-11-29T17:54:35.953Z,15.95
2022-11-29T17:57:06.073Z,12.90
2022-11-29T17:59:33.434Z,13.50
2022-11-29T18:02:02.278Z,14.23
2022-11-29T18:04:29.632Z,13.48
2022-11-29T18:06:56.966Z,13.43
2022-11-29T18:09:24.189Z,13.80
2022-11-29T18:11:52.471Z,14.43
2022-11-29T18:14:23.837Z,12.73
2022-11-29T18:16:52.064Z,14.85
2022-11-29T18:19:20.587Z,13.73
2022-11-29T18:21:48.910Z,16.95
2022-11-29T18:24:16.954Z,15.80
2022-11-29T18:26:45.147Z,15.05
2022-11-29T18:29:12.388Z,17.45
2022-11-29T18:31:41.622Z,16.38
2022-11-29T18:34:10.122Z,12.65
2022-11-29T18:36:45.339Z,15.90
2022-11-29T18:39:14.478Z,16.80
2022-11-29T18:41:46.591Z,17.85
2022-11-29T18:44:14.948Z,18.17
2022-11-29T18:46:43.511Z,16.55
2022-11-29T18:49:12.091Z,17.27
2022-11-29T18:51:39.600Z,17.30
2022-11-29T18:54:07.341Z,16.92
2022-11-29T18:56:35.663Z,17.85
2022-11-29T18:59:04.758Z,16.98
2022-11-29T19:01:34.119Z,17.08
2022-11-29T19:04:02.215Z,16.77
2022-11-29T19:06:39.038Z,16.70
2022-11-29T19:09:08.076Z,15.55
2022-11-29T19:11:35.381Z,20.08
2022-11-29T19:14:04.047Z,17.88
2022-11-29T19:16:32.534Z,17.08
2022-11-29T19:19:00.392Z,18.83
2022-11-29T19:21:29.717Z,18.10
2022-11-29T19:23:58.091Z,19.52
2022-11-29T19:26:26.668Z,18.08
2022-11-29T19:28:54.345Z,17.15
2022-11-29T19:31:27.064Z,18.52
2022-11-29T19:33:54.990Z,17.80
2022-11-29T19:36:26.246Z,17.17
2022-11-29T19:38:54.543Z,19.45
2022-11-29T19:41:23.262Z,19.52
2022-11-29T19:43:50.775Z,19.30
2022-11-29T19:46:20.243Z,17.90
2022-11-29T19:48:52.212Z,19.08
2022-11-29T19:51:19.529Z,19.17
2022-11-29T19:53:47.580Z,21.73
2022-11-29T19:56:16.680Z,21.05
2022-11-29T19:58:44.627Z,19.10
2022-11-29T20:01:13.492Z,20.30
2022-11-29T20:03:41.106Z,19.33
2022-11-29T20:06:09.149Z,17.23
2022-11-29T20:08:37.201Z,16.90
2022-11-29T20:11:12.325Z,15.07
2022-11-29T20:13:40.168Z,15.77
2022-11-29T20:16:18.372Z,15.73
2022-11-29T20:18:50.698Z,16.10
2022-11-29T20:21:28.448Z,14.93
2022-11-29T20:23:59.648Z,16.35
2022-11-29T20:26:27.817Z,16.83
2022-11-29T20:28:57.432Z,15.10
2022-11-29T20:31:24.763Z,16.05
2022-11-29T20:33:53.493Z,16.20
2022-11-29T20:36:39.972Z,15.70
2022-11-29T20:39:26.315Z,16.67
2022-11-29T20:42:00.317Z,15.27
2022-11-29T20:44:43.498Z,15.23
2022-11-29T20:47:16.473Z,16.23
2022-11-29T20:49:44.197Z,15.65
2022-11-29T20:52:38.205Z,17.08
2022-11-29T20:55:05.787Z,17.27
2022-11-29T20:57:33.242Z,15.55
2022-11-29T21:00:00.579Z,15.93
2022-11-29T21:02:27.959Z,16.90
2022-11-29T21:04:55.232Z,18.17
2022-11-29T21:07:22.464Z,18.35
2022-11-29T21:09:49.826Z,18.85
2022-11-29T21:12:17.419Z,19.08
2022-11-29T21:14:45.153Z,17.83
2022-11-29T21:17:12.857Z,18.83
2022-11-29T21:19:41.338Z,18.40
2022-11-29T21:22:20.739Z,18.38
2022-11-29T21:24:51.015Z,17.33
2022-11-29T21:27:21.189Z,18.42
2022-11-29T21:29:48.784Z,17.55
2022-11-29T21:32:24.170Z,17.25
2022-11-29T21:34:51.773Z,17.75
2022-11-29T21:37:20.605Z,16.98
2022-11-29T21:39:48.488Z,16.90
2022-11-29T21:42:15.773Z,16.00
2022-11-29T21:44:43.904Z,14.50
2022-11-29T21:47:11.257Z,14.57
2022-11-29T21:49:38.531Z,14.57
2022-11-29T21:52:06.389Z,15.20
2022-11-29T21:54:33.755Z,14.65
2022-11-29T21:57:02.001Z,15.07
2022-11-29T21:59:29.937Z,15.55
2022-11-29T22:01:57.458Z,15.00
2022-11-29T22:04:25.300Z,13.52
2022-11-29T22:06:52.611Z,15.52
2022-11-29T22:09:19.905Z,13.75
2022-11-29T22:11:47.221Z,15.23
2022-11-29T22:14:18.876Z,15.68
2022-11-29T22:16:53.722Z,16.25
2022-11-29T22:19:26.068Z,12.73
2022-11-29T22:21:54.516Z,13.05
2022-11-29T22:24:23.375Z,14.93
2022-11-29T22:26:51.484Z,14.00
2022-11-29T22:29:19.091Z,12.75
2022-11-29T22:31:48.499Z,13.80
2022-11-29T22:34:16.156Z,13.27
2022-11-29T22:36:43.824Z,13.63
2022-11-29T22:39:11.153Z,14.15
2022-11-29T22:41:39.412Z,13.70
2022-11-29T22:44:07.186Z,14.18
2022-11-29T22:46:39.398Z,14.95
2022-11-29T22:49:06.786Z,14.43
2022-11-29T22:51:35.260Z,17.33
2022-11-29T22:54:03.787Z,13.40
2022-11-29T22:56:32.589Z,14.05
2022-11-29T22:58:59.900Z,14.02
2022-11-29T23:01:28.066Z,14.48
2022-11-29T23:03:56.847Z,15.20
2022-11-29T23:06:25.606Z,14.60
2022-11-29T23:08:53.687Z,13.60
2022-11-29T23:11:22.172Z,14.20
2022-11-29T23:13:49.446Z,13.88
2022-11-29T23:16:18.167Z,14.95
2022-11-29T23:18:46.165Z,14.57
2022-11-29T23:21:20.960Z,14.20
2022-11-29T23:23:54.536Z,14.23
2022-11-29T23:26:27.422Z,13.93
2022-11-29T23:28:55.288Z,13.23
2022-11-29T23:31:23.279Z,14.43
2022-11-29T23:33:50.877Z,13.25
2022-11-29T23:36:18.940Z,13.43
2022-11-29T23:38:48.132Z,14.15
2022-11-29T23:41:15.317Z,13.23
2022-11-29T23:43:42.927Z,12.63
2022-11-29T23:46:12.934Z,13.40
2022-11-29T23:48:40.319Z,13.77
2022-11-29T23:51:07.640Z,14.70
2022-11-29T23:53:34.847Z,12.80
2022-11-29T23:56:06.666Z,14.43
2022-11-29T23:58:35.945Z,12.68
